McHenry, IL

1:08 AM CST on February 11, 2016 (GMT -0600)
Pheasant Valley | | Change Station
CLOSE
Current Station
Personal Weather Station
Location: McHenry, IL
Elevation: 768 ft
Nearby Weather Stations

Elev 768 ft 42.35 °N, 88.30 °W | Updated 12 seconds ago

Clear
Clear
9.3 °F
Feels Like 9 °F
N
0.0
Wind Variable Wind from NW
Gusts 0.0 mph

Today
High -- | Low -- °F
--% Chance of Precip.
Yesterday
High -- | Low -- °F
Precip. -- in
Pressure 30.24 in
Visibility 10.0 miles
Clouds Clear
Windchill 9 °F
Dew Point -6 °F
Humidity 49%
Rainfall 0.00 in
Snow Depth Not available.
6:55 AM 5:19 PM
Waxing Crescent, 10% visible
METAR KUGN 110655Z AUTO 31005KT 10SM CLR M13/M18 A3016 RMK AO2 SLP240 T11331183
Pressure 30.24 in
Visibility 10.0 miles
Clouds Clear
Windchill 9 °F
Dew Point -6 °F
Humidity 49%
Rainfall 0.00 in
Snow Depth Not available.
6:55 AM 5:19 PM
Waxing Crescent, 10% visible
METAR KUGN 110655Z AUTO 31005KT 10SM CLR M13/M18 A3016 RMK AO2 SLP240 T11331183

10-Day Weather Forecast

Almanac

Astronomy

Feb. 11, 2016 Rise Set
Actual Time
Civil Twilight
Nautical Twilight
Astronomical Twilight
Moon
Length of Visible Light
Length of Day
Tomorrow will be .
, % of the Moon is Illuminated

Today's Extremes

State Highs State Lows

Community

WunderPhotos

Upload Photos

1,892,028 photos uploaded!

WunderBlog® & News

Nearby

Air Quality

  Air Quality AQ Index Pollutant
Not available.

Snow Depth

Station Depth Elevation

Earthquake Activity

City Distance Mag. Time & Date
Minimum magnitude displayed is 2.5.

Coastal Water Temperatures

Place Temperature

Stations

Nearby Weather Stations

Station Location Temp. Windchill Dew Point Humidity Wind Precip. Elev Updated Type
                   

Watches & Warnings

There are currently no watches in effect.